Latest Weather Observations for Tasman Island

IDT60901

Issued at 8:31 am EST Monday 29 August 2016 (issued every 10 minutes, with the page automatically refreshed every 10 minutes)

About weather observations | Map of Hobart area stations | Latest observations for Hobart area | Other Formats
Station Details ID: 094155 Name: TASMAN ISLAND Lat: -43.24 Lon: 148.00 Height: 240.0 m
Data from the previous 72 hours. | See also: Recent months at Tasman Island
Date/Time
EST
Temp
°C
App
Temp
°C
Dew
Point
°C
Rel
Hum
%
Delta-T
°C
Wind Press
QNH
hPa
Press
MSL
hPa
Rain since
9am
mm
Dir  Spd
km/h
Gust
km/h
Spd
kts
Gust
kts
29/08:30am 7.4 5.3 1.9 68 2.3 SSW 2 7 1 4 1023.5 1023.9 0.4
29/08:00am 6.9 4.5 2.2 72 1.9 N 4 9 2 5 1023.4 1023.8 0.4
29/07:30am 6.0 3.2 1.9 75 1.7 NNW 6 13 3 7 1023.0 1023.4 0.4
29/07:00am 5.7 2.9 2.2 78 1.4 WNW 6 15 3 8 1022.6 1023.0 0.4
29/06:30am 5.3 2.9 2.0 79 1.3 WNW 4 11 2 6 1022.2 1022.6 0.4
29/06:00am 5.5 2.5 2.3 80 1.3 NNW 7 17 4 9 1021.8 1022.2 0.4
29/05:30am 5.3 2.9 2.0 79 1.3 WSW 4 11 2 6 1021.6 1022.0 0.4
29/05:00am 5.0 2.5 1.7 79 1.3 NW 4 15 2 8 1021.5 1021.9 0.4
29/04:30am 5.2 2.2 1.9 79 1.3 NW 7 20 4 11 1021.4 1021.8 0.4
29/04:00am 5.3 2.5 1.8 78 1.4 WNW 6 22 3 12 1021.2 1021.6 0.4
29/03:30am 5.2 2.7 1.3 76 1.6 ESE 4 17 2 9 1021.0 1021.4 0.4
29/03:00am 5.4 2.5 1.5 76 1.6 WNW 6 17 3 9 1020.8 1021.2 0.4
29/02:30am 5.2 2.6 1.1 75 1.6 NNE 4 17 2 9 1020.8 1021.2 0.4
29/02:00am 5.2 1.3 1.1 75 1.6 WNW 11 24 6 13 1020.7 1021.1 0.4
29/01:30am 5.4 1.9 1.1 74 1.7 WNW 9 24 5 13 1020.6 1021.0 0.4
29/01:00am 5.6 2.1 1.5 75 1.6 WNW 9 22 5 12 1020.4 1020.8 0.4
29/12:30am 5.6 1.3 1.3 74 1.7 WNW 13 30 7 16 1020.0 1020.4 0.4
29/12:00am 5.9 2.8 1.6 74 1.7 WNW 7 24 4 13 1019.9 1020.3 0.4
 
Date/Time
EST
Temp
°C
App
Temp
°C
Dew
Point
°C
Rel
Hum
%
Delta-T
°C
Wind Press
QNH
hPa
Press
MSL
hPa
Rain since
9am
mm
Dir  Spd
km/h
Gust
km/h
Spd
kts
Gust
kts
28/11:30pm 5.8 3.3 1.5 74 1.7 SW 4 19 2 10 1019.8 1020.1 0.4
28/11:00pm 5.8 2.9 1.5 74 1.7 S 6 15 3 8 1019.6 1019.9 0.4
28/10:30pm 6.1 3.0 1.6 73 1.8 NW 7 19 4 10 1019.6 1019.9 0.4
28/10:00pm 6.3 3.8 1.6 72 1.9 WNW 4 15 2 8 1019.4 1019.7 0.4
28/09:30pm 6.3 3.2 1.4 71 2.0 ESE 7 15 4 8 1019.3 1019.6 0.4
28/09:00pm 6.8 2.9 0.9 66 2.4 SW 11 35 6 19 1019.0 1019.3 0.4
28/08:30pm 7.1 4.0 1.4 67 2.3 SW 7 28 4 15 1018.6 1019.0 0.4
28/08:00pm 7.1 4.0 1.4 67 2.3 NE 7 22 4 12 1018.4 1018.8 0.4
28/07:30pm 7.1 3.5 0.3 62 2.7 W 9 20 5 11 1018.0 1018.4 0.4
28/07:00pm 7.2 3.6 0.6 63 2.6 WSW 9 28 5 15 1017.6 1018.0 0.4
28/06:30pm 7.1 3.7 1.8 69 2.2 WSW 9 24 5 13 1017.3 1017.7 0.4
28/06:00pm 7.3 3.9 1.8 68 2.3 WSW 9 22 5 12 1017.0 1017.4 0.4
28/05:30pm 7.2 3.5 2.1 70 2.1 W 11 24 6 13 1016.7 1017.1 0.4
28/05:00pm 7.1 4.2 1.4 67 2.3 NW 6 19 3 10 1016.5 1016.9 0.4
28/04:30pm 7.4 4.3 1.5 66 2.4 WNW 7 20 4 11 1016.3 1016.6 0.4
28/04:00pm 7.1 3.7 1.6 68 2.3 W 9 28 5 15 1015.9 1016.2 0.4
28/03:30pm 7.9 4.4 1.1 62 2.8 NNW 9 24 5 13 1015.6 1015.9 0.4
28/03:00pm 8.2 5.1 1.4 62 2.8 N 7 22 4 12 1015.4 1015.7 0.4
28/02:30pm 7.8 4.8 1.9 66 2.5 SSE 7 30 4 16 1015.3 1015.6 0.4
28/02:00pm 7.7 4.6 1.1 63 2.7 N 7 33 4 18 1015.2 1015.5 0.4
28/01:30pm 7.5 4.4 1.6 66 2.4 NNE 7 24 4 13 1015.3 1015.6 0.4
28/01:00pm 6.6 3.8 2.9 77 1.6 NNW 7 20 4 11 1015.5 1015.8 0.4
28/12:30pm 6.2 3.0 3.2 81 1.3 NE 9 28 5 15 1015.3 1015.6 0.4
28/12:00pm 5.3 1.7 3.0 85 1.0 SE 11 32 6 17 1015.5 1015.8 0.4
28/11:30am 5.8 2.4 2.1 77 1.5 SW 9 22 5 12 1015.5 1015.8 0.0
28/11:00am 6.4 3.7 2.9 78 1.5 ESE 6 20 3 11 1015.3 1015.6 0.0
28/10:30am 5.1 0.2 2.1 81 1.2 SW 17 37 9 20 1014.8 1015.1 0.0
28/10:00am 5.8 -0.5 1.5 74 1.7 SW 24 57 13 31 1014.5 1014.8 0.0
28/09:30am 5.6 -0.8 1.2 73 1.8 SSW 24 50 13 27 1014.1 1014.5 0.0
28/09:01am 6.8 -0.6 -0.4 60 2.8 SW 28 54 15 29 1013.7 1014.1 0.0
28/09:00am 6.7 -0.3 -0.5 60 2.8 SW 26 54 14 29 1013.7 1014.1 3.4
28/08:33am 6.0 -0.6 -0.1 65 2.4 SW 24 67 13 36 1013.4 1013.8 3.4
28/08:30am 5.8 -0.4 0.0 66 2.3 WSW 22 61 12 33 1013.4 1013.8 3.4
28/08:00am 6.3 -0.8 -1.6 57 3.0 SW 26 54 14 29 1013.1 1013.5 3.4
28/07:30am 6.1 -2.4 -1.5 58 2.9 SW 33 67 18 36 1012.5 1012.8 3.4
28/07:00am 5.9 -4.1 -1.3 60 2.7 SW 41 69 22 37 1011.8 1012.1 3.4
28/06:30am 6.2 -2.5 -0.5 62 2.6 SW 35 63 19 34 1010.9 1011.2 3.4
28/06:01am 5.7 -1.8 1.4 74 1.7 SW 30 59 16 32 1010.6 1010.9 3.4
28/06:00am 5.7 -1.0 1.4 74 1.7 SW 26 54 14 29 1010.6 1010.9 3.4
28/05:30am 5.5 -2.3 1.6 76 1.6 SW 32 57 17 31 1009.7 1010.1 3.4
28/05:00am 5.5 -2.7 2.7 82 1.2 SSW 35 61 19 33 1009.4 1009.8 3.4
28/04:30am 4.9 -4.7 3.6 91 0.5 SW 43 69 23 37 1008.7 1009.0 3.4
28/04:00am 5.3 -4.7 4.4 94 0.4 SW 46 69 25 37 1008.4 1008.7 3.2
28/03:47am 5.0 -2.5 4.3 95 0.3 SW 33 67 18 36 1008.0 1008.3 3.2
28/03:36am 4.6 -3.4 3.6 93 0.4 SW 35 70 19 38 1008.0 1008.3 2.8
28/03:35am 4.5 -3.6 3.5 93 0.4 SW 35 70 19 38 1007.9 1008.2 2.6
28/03:30am 4.4 -5.8 3.1 91 0.5 SW 46 91 25 49 1008.0 1008.3 2.0
28/03:23am 5.4 -4.3 2.8 83 1.1 SW 43 91 23 49 1007.1 1007.4 1.4
28/03:00am 5.9 -3.4 2.9 81 1.3 SW 41 69 22 37 1007.2 1007.5 1.4
28/02:30am 5.7 -3.8 4.0 89 0.7 SSW 43 76 23 41 1006.7 1007.0 1.4
28/02:00am 5.9 -5.3 4.2 89 0.7 SW 52 82 28 44 1005.8 1006.0 1.4
28/01:30am 6.1 -3.7 5.1 93 0.4 SW 46 80 25 43 1004.8 1005.1 1.4
28/01:09am 6.4 1.1 5.2 92 0.5 WSW 22 78 12 42 1004.4 1004.7 1.4
28/01:08am 6.6 1.8 5.4 92 0.5 WSW 20 78 11 42 1004.2 1004.5 1.4
28/01:00am 6.9 0.5 5.4 90 0.7 SW 28 54 15 29 1004.5 1004.8 0.8
28/12:52am 7.8 3.5 5.4 85 1.1 SW 17 46 9 25 1004.5 1004.8 0.6
28/12:30am 8.8 5.7 5.4 79 1.6 WSW 11 35 6 19 1004.1 1004.4 0.2
28/12:12am 9.3 4.0 4.9 74 2.0 NW 22 52 12 28 1003.9 1004.2 0.0
28/12:02am 9.5 -0.8 4.9 73 2.1 NW 48 67 26 36 1003.7 1004.0 0.0
28/12:00am 9.5 -1.2 4.7 72 2.2 NW 50 67 27 36 1003.6 1003.9 0.0
 
Date/Time
EST
Temp
°C
App
Temp
°C
Dew
Point
°C
Rel
Hum
%
Delta-T
°C
Wind Press
QNH
hPa
Press
MSL
hPa
Rain since
9am
mm
Dir  Spd
km/h
Gust
km/h
Spd
kts
Gust
kts
27/11:30pm 10.4 1.9 3.0 60 3.2 NW 37 59 20 32 1003.6 1003.9 0.0
27/11:00pm 10.3 0.4 2.9 60 3.3 NW 44 65 24 35 1003.6 1003.9 0.0
27/10:30pm 9.7 1.5 2.6 61 3.1 NNW 35 61 19 33 1004.2 1004.5 0.0
27/10:00pm 9.7 2.4 2.3 60 3.2 NNW 30 52 16 28 1004.7 1005.0 0.0
27/09:30pm 9.7 1.5 2.8 62 3.0 NNW 35 65 19 35 1005.0 1005.3 0.0
27/09:04pm 9.8 -0.5 2.9 62 3.0 NW 46 67 25 36 1004.7 1005.0 0.0
27/09:00pm 9.7 0.0 3.0 63 2.9 NW 43 57 23 31 1004.8 1005.1 0.0
27/08:30pm 9.6 -0.1 2.9 63 2.9 NW 43 63 23 34 1005.0 1005.3 0.0
27/08:24pm 9.8 0.1 2.9 62 3.0 NNW 43 63 23 34 1005.0 1005.3 0.0
27/08:00pm 9.8 0.1 3.1 63 2.9 NW 43 57 23 31 1005.3 1005.6 0.0
27/07:30pm 10.0 2.2 2.6 60 3.2 NW 33 57 18 31 1006.1 1006.4 0.0
27/07:00pm 10.3 2.5 2.7 59 3.3 NW 33 56 18 30 1006.2 1006.5 0.0
27/06:40pm 10.5 2.4 3.1 60 3.3 NW 35 56 19 30 1006.4 1006.7 0.0
27/06:30pm 10.4 2.7 3.2 61 3.2 NW 33 44 18 24 1006.5 1006.8 0.0
27/06:00pm 10.9 2.8 3.2 59 3.4 WNW 35 50 19 27 1006.7 1007.0 0.0
27/05:33pm 11.1 4.2 2.7 56 3.7 WNW 28 52 15 28 1006.6 1006.9 0.0
27/05:30pm 11.1 5.0 2.9 57 3.6 NW 24 39 13 21 1006.7 1007.0 0.0
27/05:08pm 11.1 4.0 3.6 60 3.4 NW 30 50 16 27 1006.7 1007.0 0.0
27/05:00pm 11.2 3.5 3.3 58 3.5 NW 33 48 18 26 1006.5 1006.8 0.0
27/04:30pm 11.3 4.2 3.3 58 3.6 NW 30 61 16 33 1006.6 1006.9 0.0
27/04:16pm 11.4 3.8 3.9 60 3.4 NW 33 50 18 27 1006.6 1006.9 0.0
27/04:00pm 11.6 6.5 4.1 60 3.4 WNW 20 35 11 19 1006.7 1007.0 0.0
27/03:30pm 11.8 4.1 3.6 57 3.7 WNW 33 46 18 25 1006.5 1006.8 0.0
27/03:00pm 11.9 3.4 3.4 56 3.8 WNW 37 50 20 27 1006.7 1007.0 0.0
27/02:32pm 11.8 3.4 3.6 57 3.7 NW 37 57 20 31 1006.7 1007.0 0.0
27/02:30pm 11.7 3.3 3.7 58 3.6 NW 37 54 20 29 1006.6 1006.9 0.0
27/02:09pm 11.6 1.8 3.6 58 3.6 NW 44 63 24 34 1006.6 1006.9 0.0
27/02:00pm 11.5 1.4 3.5 58 3.6 NW 46 63 25 34 1006.6 1006.9 0.0
27/01:30pm 11.3 2.1 3.6 59 3.5 NW 41 57 22 31 1006.9 1007.2 0.0
27/01:13pm 11.4 2.6 3.7 59 3.5 NW 39 61 21 33 1007.1 1007.4 0.0
27/01:00pm 11.3 2.9 3.6 59 3.5 NW 37 52 20 28 1007.5 1007.8 0.0
27/12:41pm 11.2 3.1 3.5 59 3.4 NW 35 56 19 30 1007.7 1008.0 0.0
27/12:30pm 11.1 3.1 3.6 60 3.4 NW 35 48 19 26 1008.0 1008.3 0.0
27/12:00pm 10.9 2.9 3.7 61 3.2 WNW 35 48 19 26 1008.3 1008.6 0.0
27/11:31am 11.1 1.3 3.4 59 3.4 NW 44 65 24 35 1008.3 1008.6 0.0
27/11:30am 11.1 0.9 3.4 59 3.4 NW 46 65 25 35 1008.3 1008.6 0.0
27/11:00am 11.4 3.7 3.2 57 3.7 WNW 33 54 18 29 1008.9 1009.2 0.0
27/10:50am 11.5 4.8 3.8 59 3.5 WNW 28 48 15 26 1008.9 1009.2 0.0
27/10:30am 11.0 4.3 3.8 61 3.2 NW 28 44 15 24 1009.2 1009.5 0.0
27/10:00am 11.1 3.0 3.4 59 3.4 NW 35 59 19 32 1009.3 1009.6 0.0
27/09:30am 10.5 3.4 3.8 63 3.0 WNW 30 48 16 26 1009.7 1010.1 0.0
27/09:27am 10.2 3.1 3.5 63 3.0 NW 30 48 16 26 1009.7 1010.1 0.0
27/09:00am 10.5 4.2 3.5 62 3.1 WNW 26 41 14 22 1010.1 1010.4 0.0
27/08:30am 10.0 3.2 3.1 62 3.0 WNW 28 59 15 32 1010.2 1010.5 0.0
27/08:27am 9.9 3.1 3.2 63 2.9 WNW 28 52 15 28 1010.2 1010.5 0.0
27/08:00am 9.7 2.5 3.2 64 2.9 WNW 30 46 16 25 1010.4 1010.7 0.0
27/07:34am 9.2 1.1 3.4 67 2.5 WNW 35 57 19 31 1009.8 1010.2 0.0
27/07:30am 9.2 1.1 3.4 67 2.5 WNW 35 52 19 28 1009.7 1010.1 0.0
27/07:00am 9.1 1.0 3.1 66 2.6 WNW 35 54 19 29 1009.7 1010.1 0.0
27/06:35am 8.7 0.9 2.9 67 2.5 WNW 33 52 18 28 1010.2 1010.5 0.0
27/06:30am 8.8 0.2 2.8 66 2.6 NW 37 52 20 28 1010.1 1010.4 0.0
27/06:00am 8.8 2.3 2.8 66 2.6 WNW 26 46 14 25 1010.2 1010.5 0.0
27/05:32am 9.2 1.9 2.5 63 2.9 WNW 30 48 16 26 1010.3 1010.6 0.0
27/05:30am 9.1 1.4 2.4 63 2.9 NW 32 48 17 26 1010.3 1010.6 0.0
27/05:00am 8.5 2.8 2.7 67 2.5 NNW 22 33 12 18 1009.9 1010.3 0.0
27/04:30am 8.9 2.1 2.9 66 2.6 NW 28 43 15 23 1009.9 1010.3 0.0
27/04:00am 7.7 3.0 3.0 72 2.0 NNW 17 28 9 15 1010.7 1011.0 0.0
27/03:30am 8.5 3.5 3.4 70 2.2 WNW 19 32 10 17 1010.9 1011.2 0.0
27/03:00am 8.3 2.7 3.4 71 2.1 NW 22 32 12 17 1011.3 1011.6 0.0
27/02:30am 8.3 5.5 3.2 70 2.2 WNW 7 20 4 11 1011.1 1011.4 0.0
27/02:00am 8.7 5.9 2.9 67 2.5 WNW 7 28 4 15 1011.1 1011.4 0.0
27/01:30am 9.7 4.9 2.6 61 3.1 W 17 35 9 19 1011.2 1011.5 0.0
27/01:00am 9.6 1.4 2.7 62 3.0 NW 35 50 19 27 1010.6 1010.9 0.0
27/12:30am 9.4 3.3 2.9 64 2.8 WNW 24 44 13 24 1011.0 1011.3 0.0
27/12:00am 9.8 3.4 3.3 64 2.9 WNW 26 44 14 24 1011.1 1011.4 0.0
 
Date/Time
EST
Temp
°C
App
Temp
°C
Dew
Point
°C
Rel
Hum
%
Delta-T
°C
Wind Press
QNH
hPa
Press
MSL
hPa
Rain since
9am
mm
Dir  Spd
km/h
Gust
km/h
Spd
kts
Gust
kts
26/11:41pm 9.7 3.0 3.7 66 2.7 WNW 28 46 15 25 1011.4 1011.7 0.0
26/11:30pm 9.5 3.2 3.7 67 2.6 WNW 26 43 14 23 1011.5 1011.8 0.0
26/11:00pm 9.5 2.9 4.3 70 2.3 NW 28 41 15 22 1011.7 1012.0 0.0
26/10:30pm 9.6 4.6 4.4 70 2.3 NW 20 43 11 23 1011.8 1012.1 0.0
26/10:00pm 9.7 4.7 4.5 70 2.3 NW 20 35 11 19 1012.0 1012.3 0.0
26/09:30pm 9.8 6.8 4.2 68 2.5 WNW 9 33 5 18 1011.8 1012.1 0.0
26/09:00pm 10.0 4.2 4.2 67 2.6 NW 24 46 13 25 1011.8 1012.1 0.0
26/08:30pm 9.9 5.8 4.1 67 2.6 WNW 15 33 8 18 1011.7 1012.0 0.0
26/08:00pm 10.0 5.2 4.4 68 2.5 WNW 19 41 10 22 1011.8 1012.1 0.0
26/07:30pm 10.0 4.2 4.2 67 2.6 WNW 24 33 13 18 1011.7 1012.0 0.0
26/07:00pm 9.8 5.4 4.6 70 2.4 WNW 17 33 9 18 1011.8 1012.1 0.0
26/06:30pm 10.0 5.9 4.6 69 2.4 WNW 15 28 8 15 1011.8 1012.1 0.0
26/06:00pm 10.4 6.3 4.3 66 2.8 WNW 15 33 8 18 1011.4 1011.7 0.0
26/05:30pm 10.5 5.6 4.2 65 2.8 NW 19 32 10 17 1011.2 1011.5 0.0
26/05:00pm 10.8 6.4 4.7 66 2.8 NW 17 32 9 17 1011.0 1011.3 0.0
26/04:30pm 10.8 7.5 4.5 65 2.9 WNW 11 26 6 14 1011.0 1011.3 0.0
26/04:00pm 11.1 7.7 4.1 62 3.2 NW 11 35 6 19 1010.7 1011.0 0.0
26/03:30pm 11.5 7.7 4.0 60 3.4 WNW 13 30 7 16 1010.6 1010.9 0.0
26/03:00pm 11.6 7.8 4.1 60 3.4 WNW 13 32 7 17 1010.6 1010.9 0.0
26/02:30pm 11.4 8.7 3.9 60 3.4 WSW 7 28 4 15 1010.6 1010.9 0.0
26/02:00pm 12.0 9.0 4.0 58 3.6 W 9 30 5 16 1010.7 1011.0 0.0
26/01:30pm 11.3 8.3 4.1 61 3.3 W 9 35 5 19 1010.8 1011.1 0.0
26/01:00pm 11.3 8.0 4.3 62 3.2 W 11 30 6 16 1011.0 1011.3 0.0
26/12:30pm 10.5 7.9 4.2 65 2.8 W 7 26 4 14 1011.3 1011.6 0.0
26/12:00pm 10.5 7.6 4.9 68 2.6 W 9 35 5 19 1011.4 1011.7 0.0
26/11:30am 9.8 6.7 3.8 66 2.7 W 9 24 5 13 1011.7 1012.0 0.0
26/11:00am 10.2 6.8 3.9 65 2.8 W 11 32 6 17 1011.9 1012.2 0.0
26/10:30am 9.3 4.1 3.3 66 2.6 WNW 20 35 11 19 1012.1 1012.4 0.0
26/10:00am 8.8 2.4 3.0 67 2.5 WNW 26 46 14 25 1012.1 1012.4 0.0
26/09:35am 8.4 1.5 2.4 66 2.5 WNW 28 46 15 25 1012.0 1012.3 0.0
26/09:30am 8.4 1.9 2.4 66 2.5 WNW 26 46 14 25 1012.1 1012.4 0.0
26/09:00am 8.0 1.1 2.3 67 2.4 WNW 28 43 15 23 1012.2 1012.5 -

Latest Capital City Observations: Canberra | Sydney | Melbourne | Brisbane | Adelaide | Perth | Hobart | Darwin

Other Formats:

Comma delimited format used in spreadsheet applications
http://www.bom.gov.au/fwo/IDT60901/IDT60901.95986.axf

JavaScript Object Notation format (JSON) in row-major order
http://www.bom.gov.au/fwo/IDT60901/IDT60901.95986.json